createdAt,value
2018-03-22T00:01:00.517Z,26.10
2018-03-22T00:03:28.069Z,20.60
2018-03-22T00:05:56.377Z,17.53
2018-03-22T00:08:23.929Z,16.77
2018-03-22T00:10:51.464Z,14.07
2018-03-22T00:13:19.020Z,16.57
2018-03-22T00:15:47.316Z,19.80
2018-03-22T00:18:15.636Z,14.93
2018-03-22T00:20:43.172Z,16.17
2018-03-22T00:23:10.724Z,13.60
2018-03-22T00:25:38.261Z,19.50
2018-03-22T00:28:05.820Z,21.33
2018-03-22T00:30:33.354Z,17.53
2018-03-22T00:33:01.673Z,24.10
2018-03-22T00:35:29.213Z,23.13
2018-03-22T00:37:56.798Z,14.40
2018-03-22T00:40:24.336Z,18.87
2018-03-22T00:42:51.888Z,21.60
2018-03-22T00:45:20.183Z,18.90
2018-03-22T00:47:48.500Z,17.27
2018-03-22T00:50:16.056Z,17.53
2018-03-22T00:52:43.592Z,26.93
2018-03-22T00:55:11.149Z,25.37
2018-03-22T00:57:38.681Z,22.93
2018-03-22T01:00:06.232Z,19.20
2018-03-22T01:02:33.783Z,21.70
2018-03-22T01:05:02.104Z,26.00
2018-03-22T01:07:29.645Z,26.63
2018-03-22T01:09:57.196Z,19.73
2018-03-22T01:12:24.733Z,28.23
2018-03-22T01:14:53.052Z,27.70
2018-03-22T01:17:20.584Z,38.30
2018-03-22T01:19:48.136Z,19.80
2018-03-22T01:22:15.670Z,28.80
2018-03-22T01:24:43.224Z,29.93
2018-03-22T01:27:11.524Z,34.00
2018-03-22T01:29:39.080Z,41.73
2018-03-22T01:32:06.615Z,36.93
2018-03-22T01:34:34.168Z,28.37
2018-03-22T01:37:01.716Z,36.37
2018-03-22T01:39:30.040Z,36.00
2018-03-22T01:41:57.574Z,34.70
2018-03-22T01:44:25.127Z,38.13
2018-03-22T01:46:52.660Z,34.70
2018-03-22T01:49:20.216Z,31.57
2018-03-22T01:51:47.752Z,34.00
2018-03-22T01:54:15.312Z,27.30
2018-03-22T01:56:43.611Z,37.27
2018-03-22T01:59:11.954Z,36.93
2018-03-22T02:01:39.500Z,38.67
2018-03-22T02:04:07.817Z,26.83
2018-03-22T02:06:36.116Z,37.57
2018-03-22T02:09:04.419Z,34.40
2018-03-22T02:11:32.838Z,31.60
2018-03-22T02:14:00.371Z,38.07
2018-03-22T02:16:27.920Z,37.30
2018-03-22T02:18:55.451Z,42.67
2018-03-22T02:21:23.009Z,34.20
2018-03-22T02:23:50.544Z,41.03
2018-03-22T02:26:18.115Z,38.10
2018-03-22T02:28:46.416Z,40.20
2018-03-22T02:31:14.735Z,36.90
2018-03-22T02:33:42.268Z,40.00
2018-03-22T02:36:09.822Z,34.97
2018-03-22T02:38:37.363Z,32.33
2018-03-22T02:41:04.918Z,34.87
2018-03-22T02:43:32.450Z,35.43
2018-03-22T02:46:00.004Z,42.77
2018-03-22T02:48:27.535Z,40.07
2018-03-22T02:50:55.098Z,44.37
2018-03-22T02:53:23.403Z,34.97
2018-03-22T02:55:51.734Z,45.33
2018-03-22T02:58:19.277Z,39.53
2018-03-22T03:00:47.612Z,43.33
2018-03-22T03:03:15.159Z,45.60
2018-03-22T03:05:43.498Z,38.73
2018-03-22T03:08:11.045Z,41.57
2018-03-22T03:10:39.373Z,33.83
2018-03-22T03:13:06.913Z,36.50
2018-03-22T03:15:34.473Z,38.60
2018-03-22T03:18:02.021Z,35.07
2018-03-22T03:20:29.598Z,43.97
2018-03-22T03:22:57.910Z,37.30
2018-03-22T03:25:25.469Z,35.90
2018-03-22T03:27:53.796Z,42.00
2018-03-22T03:30:21.362Z,42.93
2018-03-22T03:32:49.698Z,41.00
2018-03-22T03:35:17.240Z,43.93
2018-03-22T03:37:45.570Z,45.20
2018-03-22T03:40:13.116Z,44.13
2018-03-22T03:42:40.691Z,43.63
2018-03-22T03:45:08.246Z,40.40
2018-03-22T03:47:36.580Z,56.23
2018-03-22T03:50:04.125Z,42.37
2018-03-22T03:52:31.680Z,48.13
2018-03-22T03:54:59.992Z,47.37
2018-03-22T03:57:27.555Z,44.70
2018-03-22T03:59:55.097Z,39.10
2018-03-22T04:02:22.657Z,46.50
2018-03-22T04:04:50.200Z,40.63
2018-03-22T04:07:17.769Z,41.23
2018-03-22T04:09:45.313Z,44.20
2018-03-22T04:12:12.881Z,41.10
2018-03-22T04:14:41.219Z,45.03
2018-03-22T04:17:09.002Z,39.33
2018-03-22T04:19:36.659Z,45.50
2018-03-22T04:22:04.990Z,46.93
2018-03-22T04:24:32.541Z,47.77
2018-03-22T04:27:00.881Z,47.37
2018-03-22T04:29:28.430Z,51.60
2018-03-22T04:31:56.761Z,45.23
2018-03-22T04:34:24.301Z,48.37
2018-03-22T04:36:51.861Z,45.93
2018-03-22T04:39:19.410Z,57.23
2018-03-22T04:41:46.977Z,44.33
2018-03-22T04:44:14.526Z,52.77
2018-03-22T04:46:42.073Z,51.57
2018-03-22T04:49:09.641Z,49.80
2018-03-22T04:51:37.185Z,59.53
2018-03-22T04:54:04.756Z,51.10
2018-03-22T04:56:32.297Z,61.90
2018-03-22T04:59:00.620Z,57.53
2018-03-22T05:01:28.165Z,51.17
2018-03-22T05:03:55.724Z,55.17
2018-03-22T05:06:23.270Z,57.40
2018-03-22T05:08:50.840Z,50.87
2018-03-22T05:11:19.153Z,63.17
2018-03-22T05:13:47.481Z,53.90
2018-03-22T05:16:15.028Z,54.43
2018-03-22T05:18:42.620Z,50.43
2018-03-22T05:21:10.158Z,71.13
2018-03-22T05:23:40.564Z,53.00
2018-03-22T05:26:08.105Z,57.83
2018-03-22T05:28:35.665Z,58.30
2018-03-22T05:31:03.213Z,58.80
2018-03-22T05:33:30.773Z,63.73
2018-03-22T05:35:58.317Z,57.87
2018-03-22T05:38:25.879Z,64.47
2018-03-22T05:40:53.431Z,55.83
2018-03-22T05:43:20.992Z,64.10
2018-03-22T05:45:49.305Z,62.13
2018-03-22T05:48:16.897Z,62.93
2018-03-22T05:50:45.192Z,66.30
2018-03-22T05:53:12.765Z,67.80
2018-03-22T05:55:41.082Z,73.40
2018-03-22T05:58:08.641Z,76.30
2018-03-22T06:00:36.181Z,78.57
2018-03-22T06:03:03.728Z,68.57
2018-03-22T06:05:32.060Z,73.40
2018-03-22T06:07:59.833Z,73.27
2018-03-22T06:10:27.397Z,79.27
2018-03-22T06:12:55.705Z,82.40
2018-03-22T06:15:24.038Z,91.77
2018-03-22T06:17:51.581Z,77.87
2018-03-22T06:20:19.909Z,91.07
2018-03-22T06:22:47.457Z,88.43
2018-03-22T06:25:15.020Z,84.20
2018-03-22T06:27:42.569Z,104.10
2018-03-22T06:30:10.138Z,105.77
2018-03-22T06:32:37.682Z,111.77
2018-03-22T06:35:05.245Z,89.80
2018-03-22T06:37:32.804Z,98.10
2018-03-22T06:40:00.369Z,98.37
2018-03-22T06:42:27.927Z,89.77
2018-03-22T06:44:55.493Z,98.30
2018-03-22T06:47:23.042Z,100.17
2018-03-22T06:49:50.601Z,93.53
2018-03-22T06:52:18.918Z,89.63
2018-03-22T06:54:46.476Z,97.20
2018-03-22T06:57:14.784Z,105.20
2018-03-22T06:59:43.109Z,93.80
2018-03-22T07:02:10.665Z,108.97
2018-03-22T07:04:39.001Z,114.83
2018-03-22T07:07:06.545Z,90.57
2018-03-22T07:09:34.879Z,94.17
2018-03-22T07:12:02.430Z,101.40
2018-03-22T07:14:29.997Z,104.10
2018-03-22T07:16:58.308Z,124.70
2018-03-22T07:19:25.855Z,121.93
2018-03-22T07:21:53.422Z,135.60
2018-03-22T07:24:20.978Z,125.97
2018-03-22T07:26:49.317Z,115.97
2018-03-22T07:29:16.860Z,114.43
2018-03-22T07:31:44.425Z,100.30
2018-03-22T07:34:11.973Z,122.07
2018-03-22T07:36:39.541Z,117.20
2018-03-22T07:39:07.253Z,127.80
2018-03-22T07:41:34.825Z,110.90
2018-03-22T07:44:08.012Z,111.87
2018-03-22T07:46:36.358Z,112.37
2018-03-22T07:49:03.909Z,103.20
2018-03-22T07:51:31.489Z,96.97
2018-03-22T07:53:59.033Z,97.57
2018-03-22T07:56:26.601Z,107.40
2018-03-22T07:58:54.218Z,103.13
2018-03-22T08:01:21.757Z,96.47
2018-03-22T08:03:49.309Z,95.70
2018-03-22T08:06:16.873Z,92.60
2018-03-22T08:08:45.189Z,100.10
2018-03-22T08:11:12.755Z,98.03
2018-03-22T08:13:41.078Z,92.93
2018-03-22T08:16:08.644Z,93.07
2018-03-22T08:18:36.956Z,90.37
2018-03-22T08:21:05.293Z,81.27
2018-03-22T08:23:32.846Z,81.43
2018-03-22T08:26:03.881Z,75.00
2018-03-22T08:28:37.398Z,79.33
2018-03-22T08:31:10.543Z,76.03
2018-03-22T08:33:38.853Z,70.07
2018-03-22T08:36:07.182Z,84.13
2018-03-22T08:38:34.729Z,76.00
2018-03-22T08:44:15.298Z,76.83
2018-03-22T08:46:42.921Z,68.73
2018-03-22T08:49:12.033Z,70.07
2018-03-22T08:51:39.631Z,64.57
2018-03-22T08:54:09.126Z,65.93
2018-03-22T08:56:37.789Z,64.83
2018-03-22T09:02:04.138Z,60.83
2018-03-22T09:04:31.710Z,58.13
2018-03-22T09:06:59.296Z,50.33
2018-03-22T09:09:26.868Z,56.73
2018-03-22T09:11:54.460Z,53.53
2018-03-22T09:14:22.586Z,52.70
2018-03-22T09:16:50.155Z,48.77
2018-03-22T09:19:18.557Z,54.43
2018-03-22T09:21:46.166Z,51.27
2018-03-22T09:24:13.736Z,50.53
2018-03-22T09:26:47.795Z,50.33
2018-03-22T09:29:15.374Z,49.90
2018-03-22T09:31:42.944Z,46.43
2018-03-22T09:34:16.668Z,49.93
2018-03-22T09:36:44.239Z,49.03
2018-03-22T09:39:11.821Z,56.30
2018-03-22T09:44:20.877Z,48.43
2018-03-22T09:46:48.468Z,43.70
2018-03-22T09:49:16.029Z,46.67
2018-03-22T09:51:43.590Z,49.57
2018-03-22T09:54:12.471Z,43.90
2018-03-22T09:56:40.031Z,47.07
2018-03-22T09:59:07.611Z,44.97
2018-03-22T10:01:36.705Z,49.97
2018-03-22T10:04:04.282Z,49.87
2018-03-22T10:06:31.877Z,45.47
2018-03-22T10:08:59.463Z,43.67
2018-03-22T10:11:27.922Z,48.77
2018-03-22T10:13:56.262Z,42.80
2018-03-22T10:16:24.913Z,39.87
2018-03-22T10:18:52.446Z,37.43
2018-03-22T10:21:20.757Z,40.03
2018-03-22T10:23:48.328Z,39.63
2018-03-22T10:26:23.634Z,35.30
2018-03-22T10:28:51.222Z,41.30
2018-03-22T10:31:18.818Z,39.30
2018-03-22T10:33:47.580Z,28.67
2018-03-22T10:36:15.187Z,27.53
2018-03-22T10:38:42.779Z,28.67
2018-03-22T10:41:10.354Z,35.83
2018-03-22T10:43:37.926Z,31.67
2018-03-22T10:46:05.478Z,31.07
2018-03-22T10:48:33.054Z,31.50
2018-03-22T10:51:01.384Z,34.37
2018-03-22T10:53:28.962Z,30.97
2018-03-22T10:55:56.531Z,33.07
2018-03-22T10:58:24.138Z,29.37
2018-03-22T11:00:58.024Z,28.37
2018-03-22T11:03:27.506Z,30.80
2018-03-22T11:05:55.102Z,27.87
2018-03-22T11:08:22.657Z,30.43
2018-03-22T11:10:50.237Z,31.17
2018-03-22T11:13:17.805Z,30.57
2018-03-22T11:15:45.402Z,29.93
2018-03-22T11:18:12.963Z,29.07
2018-03-22T11:20:40.529Z,28.33
2018-03-22T11:23:08.090Z,29.23
2018-03-22T11:25:35.678Z,27.87
2018-03-22T11:28:03.255Z,30.30
2018-03-22T11:30:30.818Z,30.73
2018-03-22T11:32:58.400Z,35.03
2018-03-22T11:35:25.970Z,34.07
2018-03-22T11:37:54.289Z,27.67
2018-03-22T11:40:21.871Z,29.53
2018-03-22T11:42:49.427Z,28.47
2018-03-22T11:45:17.005Z,34.33
2018-03-22T11:47:44.565Z,29.53
2018-03-22T11:50:12.130Z,27.87
2018-03-22T11:52:39.686Z,26.80
2018-03-22T11:55:07.274Z,32.27
2018-03-22T11:57:34.836Z,33.13
2018-03-22T12:00:18.952Z,34.07
2018-03-22T12:02:46.507Z,32.10
2018-03-22T12:05:14.850Z,36.80
2018-03-22T12:07:44.223Z,41.70
2018-03-22T12:10:11.821Z,32.20
2018-03-22T12:12:39.384Z,37.60
2018-03-22T12:15:06.975Z,36.30
2018-03-22T12:17:34.523Z,41.77
2018-03-22T12:20:03.209Z,38.17
2018-03-22T12:22:30.786Z,35.13
2018-03-22T12:24:58.343Z,40.60
2018-03-22T12:27:25.915Z,35.50
2018-03-22T12:29:53.466Z,33.97
2018-03-22T12:32:21.822Z,41.70
2018-03-22T12:34:49.375Z,43.50
2018-03-22T12:37:16.966Z,41.00
2018-03-22T12:39:44.524Z,37.73
2018-03-22T12:42:12.116Z,38.83
2018-03-22T12:44:39.670Z,37.87
2018-03-22T12:47:07.238Z,41.00
2018-03-22T12:49:34.789Z,38.20
2018-03-22T12:52:02.366Z,40.80
2018-03-22T12:54:33.018Z,40.53
2018-03-22T12:57:00.582Z,45.30
2018-03-22T12:59:28.147Z,37.10
2018-03-22T13:01:55.726Z,50.63
2018-03-22T13:04:23.278Z,40.37
2018-03-22T13:06:51.618Z,44.70
2018-03-22T13:09:19.598Z,43.93
2018-03-22T13:11:47.188Z,51.87
2018-03-22T13:14:15.923Z,52.93
2018-03-22T13:16:43.490Z,52.53
2018-03-22T13:19:11.052Z,55.83
2018-03-22T13:21:49.235Z,54.60
2018-03-22T13:24:20.337Z,63.70
2018-03-22T13:26:48.577Z,66.97
2018-03-22T13:29:16.126Z,60.67
2018-03-22T13:31:44.457Z,58.67
2018-03-22T13:34:12.000Z,56.27
2018-03-22T13:36:40.659Z,56.07
2018-03-22T13:39:08.347Z,60.93
2018-03-22T13:41:36.119Z,56.67
2018-03-22T13:44:03.674Z,60.77
2018-03-22T13:46:31.239Z,53.20
2018-03-22T13:48:59.548Z,64.13
2018-03-22T13:51:27.088Z,56.37
2018-03-22T13:53:54.654Z,59.53
2018-03-22T13:56:22.201Z,57.80
2018-03-22T13:58:50.313Z,56.10
2018-03-22T14:01:19.153Z,53.87
2018-03-22T14:03:46.721Z,57.00
2018-03-22T14:06:15.035Z,53.57
2018-03-22T14:08:46.725Z,50.63
2018-03-22T14:11:14.274Z,63.80
2018-03-22T14:13:42.601Z,50.27
2018-03-22T14:16:10.140Z,47.63
2018-03-22T14:18:37.707Z,51.50
2018-03-22T14:21:05.260Z,52.63
2018-03-22T14:23:34.088Z,53.00
2018-03-22T14:26:01.657Z,49.30
2018-03-22T14:28:29.234Z,54.43
2018-03-22T14:30:56.790Z,62.90
2018-03-22T14:33:24.366Z,53.60
2018-03-22T14:35:51.916Z,59.40
2018-03-22T14:38:19.481Z,53.73
2018-03-22T14:40:47.021Z,52.70
2018-03-22T14:43:14.585Z,53.57
2018-03-22T14:45:42.138Z,57.90
2018-03-22T14:48:09.706Z,54.07
2018-03-22T14:50:37.258Z,63.83
2018-03-22T14:53:04.826Z,58.10
2018-03-22T14:55:32.376Z,58.50
2018-03-22T14:57:59.958Z,58.23
2018-03-22T15:00:27.508Z,55.90
2018-03-22T15:02:55.837Z,61.03
2018-03-22T15:05:23.381Z,59.40
2018-03-22T15:07:50.957Z,61.67
2018-03-22T15:10:18.515Z,64.07
2018-03-22T15:12:46.082Z,60.93
2018-03-22T15:15:13.653Z,63.17
2018-03-22T15:17:41.201Z,66.57
2018-03-22T15:20:08.778Z,58.97
2018-03-22T15:22:36.324Z,67.73
2018-03-22T15:25:03.894Z,63.10
2018-03-22T15:27:31.452Z,59.57
2018-03-22T15:29:59.785Z,63.60
2018-03-22T15:32:27.339Z,60.70
2018-03-22T15:34:55.673Z,57.73
2018-03-22T15:37:23.216Z,61.77
2018-03-22T15:39:50.784Z,60.23
2018-03-22T15:42:18.330Z,61.43
2018-03-22T15:44:45.906Z,59.43
2018-03-22T15:47:13.457Z,66.40
2018-03-22T15:49:41.814Z,70.80
2018-03-22T15:52:09.358Z,58.10
2018-03-22T15:54:36.929Z,64.13
2018-03-22T15:57:05.237Z,66.00
2018-03-22T15:59:33.572Z,63.60
2018-03-22T16:02:01.131Z,64.13
2018-03-22T16:04:28.697Z,64.97
2018-03-22T16:06:57.011Z,71.87
2018-03-22T16:09:25.368Z,77.47
2018-03-22T16:11:52.915Z,54.93
2018-03-22T16:14:20.481Z,69.33
2018-03-22T16:16:48.797Z,69.00
2018-03-22T16:19:16.367Z,73.23
2018-03-22T16:21:44.678Z,63.90
2018-03-22T16:24:12.250Z,68.67
2018-03-22T16:26:40.560Z,68.57
2018-03-22T16:29:08.109Z,70.97
2018-03-22T16:31:35.677Z,72.40
2018-03-22T16:34:03.224Z,80.07
2018-03-22T16:36:30.795Z,75.90
2018-03-22T16:38:58.341Z,89.17
2018-03-22T16:41:25.904Z,83.47
2018-03-22T16:43:53.450Z,69.10
2018-03-22T16:46:21.018Z,70.97
2018-03-22T16:48:49.336Z,80.00
2018-03-22T16:51:16.924Z,92.33
2018-03-22T16:53:44.470Z,87.70
2018-03-22T16:56:12.037Z,81.47
2018-03-22T16:58:39.585Z,85.20
2018-03-22T17:01:07.161Z,95.73
2018-03-22T17:03:34.709Z,97.37
2018-03-22T17:06:02.304Z,99.27
2018-03-22T17:08:30.631Z,86.87
2018-03-22T17:10:58.217Z,115.23
2018-03-22T17:13:25.769Z,121.70
2018-03-22T17:15:53.335Z,132.43
2018-03-22T17:18:20.888Z,134.63
2018-03-22T17:20:48.455Z,131.07
2018-03-22T17:23:16.007Z,145.27
2018-03-22T17:25:44.349Z,130.63
2018-03-22T17:28:11.900Z,112.97
2018-03-22T17:30:39.485Z,154.00
2018-03-22T17:33:07.807Z,146.67
2018-03-22T17:35:35.389Z,124.60
2018-03-22T17:38:02.935Z,130.33
2018-03-22T17:40:30.517Z,147.93
2018-03-22T17:42:58.065Z,161.80
2018-03-22T17:45:25.619Z,151.20
2018-03-22T17:47:53.953Z,167.90
2018-03-22T17:50:21.506Z,162.13
2018-03-22T17:52:49.080Z,188.40
2018-03-22T17:55:17.399Z,210.87
2018-03-22T17:57:44.977Z,353.30
2018-03-22T18:00:12.549Z,285.53
2018-03-22T18:02:40.882Z,271.90
2018-03-22T18:05:08.439Z,232.63
2018-03-22T18:07:36.768Z,179.33
2018-03-22T18:10:04.317Z,233.83
2018-03-22T18:12:32.673Z,257.00
2018-03-22T18:15:00.222Z,275.03
2018-03-22T18:17:27.788Z,175.17
2018-03-22T18:19:56.108Z,167.17
2018-03-22T18:22:23.681Z,152.63
2018-03-22T18:24:52.001Z,175.70
2018-03-22T18:27:19.580Z,205.63
2018-03-22T18:29:47.193Z,213.73
2018-03-22T18:32:14.733Z,202.33
2018-03-22T18:34:43.095Z,189.53
2018-03-22T18:37:10.645Z,226.50
2018-03-22T18:39:38.196Z,245.27
2018-03-22T18:42:06.525Z,238.63
2018-03-22T18:44:34.081Z,224.03
2018-03-22T18:47:01.668Z,326.53
2018-03-22T18:49:29.215Z,400.97
2018-03-22T18:51:56.819Z,320.63
2018-03-22T18:54:24.379Z,461.53
2018-03-22T18:56:51.984Z,361.53
2018-03-22T18:59:19.529Z,449.17
2018-03-22T19:01:47.100Z,568.03
2018-03-22T19:04:15.438Z,524.97
2018-03-22T19:06:43.011Z,411.30
2018-03-22T19:09:10.591Z,684.97
2018-03-22T19:11:38.153Z,890.50
2018-03-22T19:14:06.500Z,674.27
2018-03-22T19:16:34.062Z,487.77
2018-03-22T19:19:02.401Z,596.67
2018-03-22T19:21:29.960Z,558.93
2018-03-22T19:23:57.552Z,638.77
2018-03-22T19:26:25.105Z,610.57
2018-03-22T19:28:53.442Z,623.63
2018-03-22T19:31:21.016Z,689.20
2018-03-22T19:33:48.593Z,688.93
2018-03-22T19:36:16.908Z,735.67
2018-03-22T19:38:44.488Z,619.30
2018-03-22T19:41:12.045Z,680.13
2018-03-22T19:43:39.663Z,643.80
2018-03-22T19:46:07.975Z,572.87
2018-03-22T19:48:35.551Z,527.73
2018-03-22T19:51:03.861Z,415.27
2018-03-22T19:53:31.440Z,315.10
2018-03-22T19:55:59.753Z,426.83
2018-03-22T19:58:28.082Z,409.50
2018-03-22T20:00:55.638Z,444.83
2018-03-22T20:03:28.505Z,354.10
2018-03-22T20:05:57.196Z,718.60
2018-03-22T20:08:24.769Z,310.13
2018-03-22T20:10:53.085Z,222.23
2018-03-22T20:13:20.664Z,206.97
2018-03-22T20:15:48.218Z,191.70
2018-03-22T20:18:15.770Z,202.30
2018-03-22T20:20:43.348Z,181.57
2018-03-22T20:23:10.893Z,176.10
2018-03-22T20:25:39.437Z,151.93
2018-03-22T20:28:08.958Z,138.70
2018-03-22T20:30:36.521Z,113.60
2018-03-22T20:33:04.067Z,103.47
2018-03-22T20:35:31.633Z,93.80
2018-03-22T20:37:59.183Z,95.70
2018-03-22T20:40:26.752Z,101.80
2018-03-22T20:42:54.305Z,104.50
2018-03-22T20:45:21.873Z,93.70
2018-03-22T20:47:49.412Z,90.53
2018-03-22T20:50:16.972Z,84.47
2018-03-22T20:52:44.541Z,94.13
2018-03-22T20:55:12.122Z,92.43
2018-03-22T20:57:40.438Z,69.67
2018-03-22T21:00:08.781Z,70.60
2018-03-22T21:02:36.337Z,74.67
2018-03-22T21:05:03.907Z,69.40
2018-03-22T21:07:31.458Z,71.30
2018-03-22T21:09:59.051Z,78.33
2018-03-22T21:12:26.604Z,78.63
2018-03-22T21:14:54.188Z,78.80
2018-03-22T21:17:21.741Z,86.00
2018-03-22T21:19:49.305Z,89.00
2018-03-22T21:22:16.854Z,99.73
2018-03-22T21:24:45.184Z,84.47
2018-03-22T21:27:12.734Z,74.53
2018-03-22T21:29:41.065Z,84.07
2018-03-22T21:32:08.621Z,81.33
2018-03-22T21:34:36.956Z,72.47
2018-03-22T21:37:04.498Z,83.53
2018-03-22T21:39:32.055Z,73.80
2018-03-22T21:42:05.583Z,75.93
2018-03-22T21:44:33.124Z,81.90
2018-03-22T21:47:12.457Z,89.43
2018-03-22T21:49:40.018Z,76.50
2018-03-22T21:52:19.363Z,71.20
2018-03-22T21:54:46.914Z,69.90
2018-03-22T21:57:14.484Z,77.87
2018-03-22T21:59:42.790Z,68.10
2018-03-22T22:02:11.129Z,65.13
2018-03-22T22:04:38.677Z,60.40
2018-03-22T22:07:07.012Z,66.90
2018-03-22T22:09:34.568Z,75.40
2018-03-22T22:12:02.919Z,72.23
2018-03-22T22:14:30.471Z,71.37
2018-03-22T22:16:58.042Z,63.93
2018-03-22T22:19:25.588Z,72.73
2018-03-22T22:21:53.161Z,70.37
2018-03-22T22:24:20.709Z,61.00
2018-03-22T22:26:48.277Z,54.47
2018-03-22T22:29:15.825Z,42.33
2018-03-22T22:31:43.397Z,47.60
2018-03-22T22:34:11.709Z,41.90
2018-03-22T22:36:39.268Z,40.90
2018-03-22T22:39:06.814Z,42.43
2018-03-22T22:41:34.389Z,45.87
2018-03-22T22:44:02.703Z,52.13
2018-03-22T22:46:30.269Z,48.80
2018-03-22T22:48:58.576Z,42.97
2018-03-22T22:51:26.145Z,40.87
2018-03-22T22:53:53.685Z,41.30
2018-03-22T22:56:21.246Z,38.07
2018-03-22T22:58:48.788Z,39.93
2018-03-22T23:01:16.373Z,39.93
2018-03-22T23:03:43.916Z,36.33
2018-03-22T23:06:11.461Z,37.50
2018-03-22T23:08:39.793Z,37.47
2018-03-22T23:11:07.340Z,33.40
2018-03-22T23:13:34.901Z,41.70
2018-03-22T23:16:02.445Z,39.17
2018-03-22T23:18:30.014Z,42.37
2018-03-22T23:20:58.328Z,33.17
2018-03-22T23:23:25.894Z,45.67
2018-03-22T23:25:54.209Z,45.53
2018-03-22T23:28:21.772Z,40.00
2018-03-22T23:30:50.082Z,43.93
2018-03-22T23:33:18.412Z,47.87
2018-03-22T23:35:45.985Z,41.20
2018-03-22T23:38:14.316Z,55.13
2018-03-22T23:40:41.863Z,43.83
2018-03-22T23:43:10.197Z,48.17
2018-03-22T23:45:37.740Z,36.80
2018-03-22T23:48:06.069Z,44.30
2018-03-22T23:50:33.610Z,46.73
2018-03-22T23:53:01.177Z,46.03
2018-03-22T23:55:28.720Z,44.10
2018-03-22T23:57:56.285Z,54.00
